sensor_id;sensor_type;location;lat;lon;timestamp;P1;durP1;ratioP1;P2;durP2;ratioP2
38111;SDS011;64011;56.312;44.048;2023-04-01T00:01:25;10.15;;;3.85;;
38111;SDS011;64011;56.312;44.048;2023-04-01T00:03:26;13.98;;;5.85;;
38111;SDS011;64011;56.312;44.048;2023-04-01T00:05:28;13.98;;;5.38;;
38111;SDS011;64011;56.312;44.048;2023-04-01T00:07:29;15.65;;;5.97;;
38111;SDS011;64011;56.312;44.048;2023-04-01T00:09:30;8.95;;;3.13;;
38111;SDS011;64011;56.312;44.048;2023-04-01T00:11:31;17.17;;;6.03;;
38111;SDS011;64011;56.312;44.048;2023-04-01T00:13:33;15.43;;;6.35;;
38111;SDS011;64011;56.312;44.048;2023-04-01T00:15:34;16.92;;;7.13;;
38111;SDS011;64011;56.312;44.048;2023-04-01T00:17:35;14.15;;;5.05;;
38111;SDS011;64011;56.312;44.048;2023-04-01T00:19:35;16.13;;;6.40;;
38111;SDS011;64011;56.312;44.048;2023-04-01T00:21:38;13.23;;;5.05;;
38111;SDS011;64011;56.312;44.048;2023-04-01T00:23:38;14.40;;;5.28;;
38111;SDS011;64011;56.312;44.048;2023-04-01T00:25:39;13.80;;;5.47;;
38111;SDS011;64011;56.312;44.048;2023-04-01T00:27:40;17.38;;;7.55;;
38111;SDS011;64011;56.312;44.048;2023-04-01T00:29:42;10.55;;;4.25;;
38111;SDS011;64011;56.312;44.048;2023-04-01T00:31:42;14.43;;;5.40;;
38111;SDS011;64011;56.312;44.048;2023-04-01T00:33:43;17.58;;;6.22;;
38111;SDS011;64011;56.312;44.048;2023-04-01T00:35:44;16.67;;;7.03;;
38111;SDS011;64011;56.312;44.048;2023-04-01T00:37:46;16.90;;;8.13;;
38111;SDS011;64011;56.312;44.048;2023-04-01T00:39:47;16.83;;;7.25;;
38111;SDS011;64011;56.312;44.048;2023-04-01T00:41:48;19.45;;;8.90;;
38111;SDS011;64011;56.312;44.048;2023-04-01T00:43:50;15.18;;;5.97;;
38111;SDS011;64011;56.312;44.048;2023-04-01T00:45:51;20.27;;;9.50;;
38111;SDS011;64011;56.312;44.048;2023-04-01T00:47:51;19.58;;;8.80;;
38111;SDS011;64011;56.312;44.048;2023-04-01T00:49:53;10.35;;;3.63;;
38111;SDS011;64011;56.312;44.048;2023-04-01T00:51:55;18.27;;;8.98;;
38111;SDS011;64011;56.312;44.048;2023-04-01T00:53:59;19.50;;;8.30;;
38111;SDS011;64011;56.312;44.048;2023-04-01T00:56:01;15.70;;;6.47;;
38111;SDS011;64011;56.312;44.048;2023-04-01T00:58:05;20.45;;;8.65;;
38111;SDS011;64011;56.312;44.048;2023-04-01T01:00:09;18.13;;;6.85;;
38111;SDS011;64011;56.312;44.048;2023-04-01T01:02:11;20.75;;;8.95;;
38111;SDS011;64011;56.312;44.048;2023-04-01T01:04:20;18.27;;;7.85;;
38111;SDS011;64011;56.312;44.048;2023-04-01T01:06:25;19.15;;;9.43;;
38111;SDS011;64011;56.312;44.048;2023-04-01T01:08:32;19.00;;;8.20;;
38111;SDS011;64011;56.312;44.048;2023-04-01T01:10:42;17.70;;;5.72;;
38111;SDS011;64011;56.312;44.048;2023-04-01T01:12:44;13.02;;;4.95;;
38111;SDS011;64011;56.312;44.048;2023-04-01T01:14:51;19.83;;;7.55;;
38111;SDS011;64011;56.312;44.048;2023-04-01T01:16:57;22.70;;;9.25;;
38111;SDS011;64011;56.312;44.048;2023-04-01T01:19:02;19.88;;;8.15;;
38111;SDS011;64011;56.312;44.048;2023-04-01T01:21:24;14.32;;;5.47;;
38111;SDS011;64011;56.312;44.048;2023-04-01T01:23:39;21.77;;;10.35;;
38111;SDS011;64011;56.312;44.048;2023-04-01T01:26:06;21.05;;;9.40;;
38111;SDS011;64011;56.312;44.048;2023-04-01T01:28:22;19.63;;;8.98;;
38111;SDS011;64011;56.312;44.048;2023-04-01T01:30:35;22.67;;;10.80;;
38111;SDS011;64011;56.312;44.048;2023-04-01T01:35:16;17.60;;;7.60;;
38111;SDS011;64011;56.312;44.048;2023-04-01T01:37:21;22.23;;;10.32;;
38111;SDS011;64011;56.312;44.048;2023-04-01T01:39:23;19.27;;;8.75;;
38111;SDS011;64011;56.312;44.048;2023-04-01T01:41:27;23.63;;;10.57;;
38111;SDS011;64011;56.312;44.048;2023-04-01T01:43:29;21.20;;;9.30;;
38111;SDS011;64011;56.312;44.048;2023-04-01T01:45:32;22.33;;;10.82;;
38111;SDS011;64011;56.312;44.048;2023-04-01T01:47:34;21.23;;;10.27;;
38111;SDS011;64011;56.312;44.048;2023-04-01T01:49:36;22.42;;;10.10;;
38111;SDS011;64011;56.312;44.048;2023-04-01T01:51:38;19.48;;;9.20;;
38111;SDS011;64011;56.312;44.048;2023-04-01T01:53:39;20.23;;;8.52;;
38111;SDS011;64011;56.312;44.048;2023-04-01T01:55:41;23.27;;;10.68;;
38111;SDS011;64011;56.312;44.048;2023-04-01T01:57:43;17.70;;;6.63;;
38111;SDS011;64011;56.312;44.048;2023-04-01T01:59:44;22.50;;;9.63;;
38111;SDS011;64011;56.312;44.048;2023-04-01T02:01:46;20.15;;;9.82;;
38111;SDS011;64011;56.312;44.048;2023-04-01T02:03:49;21.13;;;8.13;;
38111;SDS011;64011;56.312;44.048;2023-04-01T02:05:51;18.13;;;7.43;;
38111;SDS011;64011;56.312;44.048;2023-04-01T02:07:57;15.82;;;5.85;;
38111;SDS011;64011;56.312;44.048;2023-04-01T02:10:01;22.58;;;9.98;;
38111;SDS011;64011;56.312;44.048;2023-04-01T02:12:04;21.77;;;10.13;;
38111;SDS011;64011;56.312;44.048;2023-04-01T02:14:06;17.70;;;6.97;;
38111;SDS011;64011;56.312;44.048;2023-04-01T02:16:31;21.38;;;10.00;;
38111;SDS011;64011;56.312;44.048;2023-04-01T02:18:35;19.73;;;9.23;;
38111;SDS011;64011;56.312;44.048;2023-04-01T02:20:36;20.67;;;9.77;;
38111;SDS011;64011;56.312;44.048;2023-04-01T02:22:38;20.55;;;9.73;;
38111;SDS011;64011;56.312;44.048;2023-04-01T02:24:43;21.20;;;9.98;;
38111;SDS011;64011;56.312;44.048;2023-04-01T02:26:43;21.98;;;8.63;;
38111;SDS011;64011;56.312;44.048;2023-04-01T02:28:45;22.23;;;10.57;;
38111;SDS011;64011;56.312;44.048;2023-04-01T02:30:46;22.05;;;11.15;;
38111;SDS011;64011;56.312;44.048;2023-04-01T02:32:48;19.67;;;7.80;;
38111;SDS011;64011;56.312;44.048;2023-04-01T02:34:49;19.60;;;8.20;;
38111;SDS011;64011;56.312;44.048;2023-04-01T02:36:51;18.40;;;8.02;;
38111;SDS011;64011;56.312;44.048;2023-04-01T02:38:51;18.45;;;7.60;;
38111;SDS011;64011;56.312;44.048;2023-04-01T02:40:58;19.80;;;8.70;;
38111;SDS011;64011;56.312;44.048;2023-04-01T02:43:00;19.85;;;9.02;;
38111;SDS011;64011;56.312;44.048;2023-04-01T02:45:00;20.13;;;7.78;;
38111;SDS011;64011;56.312;44.048;2023-04-01T02:47:01;20.45;;;9.75;;
38111;SDS011;64011;56.312;44.048;2023-04-01T02:49:02;20.60;;;9.93;;
38111;SDS011;64011;56.312;44.048;2023-04-01T02:51:03;20.73;;;10.00;;
38111;SDS011;64011;56.312;44.048;2023-04-01T02:53:04;19.40;;;8.23;;
38111;SDS011;64011;56.312;44.048;2023-04-01T02:55:05;22.30;;;10.98;;
38111;SDS011;64011;56.312;44.048;2023-04-01T02:57:08;19.35;;;7.43;;
38111;SDS011;64011;56.312;44.048;2023-04-01T02:59:09;23.23;;;10.50;;
38111;SDS011;64011;56.312;44.048;2023-04-01T03:01:12;21.90;;;10.00;;
38111;SDS011;64011;56.312;44.048;2023-04-01T03:03:12;21.02;;;10.50;;
38111;SDS011;64011;56.312;44.048;2023-04-01T03:05:15;21.25;;;9.70;;
38111;SDS011;64011;56.312;44.048;2023-04-01T03:07:17;24.50;;;10.77;;
38111;SDS011;64011;56.312;44.048;2023-04-01T03:09:17;19.77;;;7.32;;
38111;SDS011;64011;56.312;44.048;2023-04-01T03:11:18;20.13;;;9.25;;
38111;SDS011;64011;56.312;44.048;2023-04-01T03:13:20;24.48;;;11.85;;
38111;SDS011;64011;56.312;44.048;2023-04-01T03:15:21;20.92;;;10.25;;
38111;SDS011;64011;56.312;44.048;2023-04-01T03:17:22;21.70;;;10.95;;
38111;SDS011;64011;56.312;44.048;2023-04-01T03:19:23;21.58;;;10.18;;
38111;SDS011;64011;56.312;44.048;2023-04-01T03:21:24;22.90;;;10.95;;
38111;SDS011;64011;56.312;44.048;2023-04-01T03:23:25;22.33;;;10.93;;
38111;SDS011;64011;56.312;44.048;2023-04-01T03:25:26;23.20;;;11.25;;
38111;SDS011;64011;56.312;44.048;2023-04-01T03:27:27;23.13;;;10.93;;
38111;SDS011;64011;56.312;44.048;2023-04-01T03:29:29;20.58;;;8.68;;
38111;SDS011;64011;56.312;44.048;2023-04-01T03:31:29;23.23;;;11.25;;
38111;SDS011;64011;56.312;44.048;2023-04-01T03:33:30;17.23;;;7.30;;
38111;SDS011;64011;56.312;44.048;2023-04-01T03:35:31;23.13;;;11.38;;
38111;SDS011;64011;56.312;44.048;2023-04-01T03:37:32;25.58;;;12.70;;
38111;SDS011;64011;56.312;44.048;2023-04-01T03:39:33;24.80;;;11.38;;
38111;SDS011;64011;56.312;44.048;2023-04-01T03:41:35;20.25;;;8.85;;
38111;SDS011;64011;56.312;44.048;2023-04-01T03:43:35;23.02;;;12.00;;
38111;SDS011;64011;56.312;44.048;2023-04-01T03:45:40;24.27;;;10.82;;
38111;SDS011;64011;56.312;44.048;2023-04-01T03:47:44;23.20;;;11.35;;
38111;SDS011;64011;56.312;44.048;2023-04-01T03:49:45;24.77;;;12.35;;
38111;SDS011;64011;56.312;44.048;2023-04-01T03:51:46;22.08;;;9.88;;
38111;SDS011;64011;56.312;44.048;2023-04-01T03:53:47;24.98;;;12.63;;
38111;SDS011;64011;56.312;44.048;2023-04-01T03:55:47;25.90;;;11.35;;
38111;SDS011;64011;56.312;44.048;2023-04-01T03:57:48;21.60;;;9.98;;
38111;SDS011;64011;56.312;44.048;2023-04-01T03:59:49;24.17;;;10.85;;
38111;SDS011;64011;56.312;44.048;2023-04-01T04:01:51;23.50;;;11.90;;
38111;SDS011;64011;56.312;44.048;2023-04-01T04:03:51;24.77;;;10.82;;
38111;SDS011;64011;56.312;44.048;2023-04-01T04:05:52;27.63;;;12.35;;
38111;SDS011;64011;56.312;44.048;2023-04-01T04:07:53;19.10;;;7.80;;
38111;SDS011;64011;56.312;44.048;2023-04-01T04:09:54;22.70;;;11.45;;
38111;SDS011;64011;56.312;44.048;2023-04-01T04:11:55;24.27;;;12.00;;
38111;SDS011;64011;56.312;44.048;2023-04-01T04:13:57;22.73;;;10.88;;
38111;SDS011;64011;56.312;44.048;2023-04-01T04:15:57;23.35;;;12.10;;
38111;SDS011;64011;56.312;44.048;2023-04-01T04:18:00;21.42;;;10.32;;
38111;SDS011;64011;56.312;44.048;2023-04-01T04:20:01;21.58;;;9.85;;
38111;SDS011;64011;56.312;44.048;2023-04-01T04:22:01;21.63;;;11.05;;
38111;SDS011;64011;56.312;44.048;2023-04-01T04:24:02;17.58;;;7.22;;
38111;SDS011;64011;56.312;44.048;2023-04-01T04:26:04;20.35;;;9.05;;
38111;SDS011;64011;56.312;44.048;2023-04-01T04:28:08;20.38;;;9.77;;
38111;SDS011;64011;56.312;44.048;2023-04-01T04:30:09;20.85;;;9.38;;
38111;SDS011;64011;56.312;44.048;2023-04-01T04:32:10;22.27;;;9.82;;
38111;SDS011;64011;56.312;44.048;2023-04-01T04:34:12;19.15;;;8.48;;
38111;SDS011;64011;56.312;44.048;2023-04-01T04:36:13;17.20;;;7.13;;
38111;SDS011;64011;56.312;44.048;2023-04-01T04:38:14;22.90;;;11.00;;
38111;SDS011;64011;56.312;44.048;2023-04-01T04:40:15;22.60;;;11.60;;
38111;SDS011;64011;56.312;44.048;2023-04-01T04:42:16;23.40;;;11.30;;
38111;SDS011;64011;56.312;44.048;2023-04-01T04:44:16;22.15;;;10.50;;
38111;SDS011;64011;56.312;44.048;2023-04-01T04:46:17;22.90;;;11.07;;
38111;SDS011;64011;56.312;44.048;2023-04-01T04:48:18;23.33;;;11.68;;
38111;SDS011;64011;56.312;44.048;2023-04-01T04:50:21;19.90;;;8.85;;
38111;SDS011;64011;56.312;44.048;2023-04-01T04:52:21;22.65;;;10.82;;
38111;SDS011;64011;56.312;44.048;2023-04-01T04:54:22;20.27;;;8.73;;
38111;SDS011;64011;56.312;44.048;2023-04-01T04:56:23;16.48;;;6.00;;
38111;SDS011;64011;56.312;44.048;2023-04-01T04:58:24;18.65;;;7.60;;
38111;SDS011;64011;56.312;44.048;2023-04-01T05:00:24;21.00;;;10.32;;
38111;SDS011;64011;56.312;44.048;2023-04-01T05:02:25;19.75;;;9.25;;
38111;SDS011;64011;56.312;44.048;2023-04-01T05:04:26;21.33;;;10.05;;
38111;SDS011;64011;56.312;44.048;2023-04-01T05:06:28;22.02;;;10.10;;
38111;SDS011;64011;56.312;44.048;2023-04-01T05:08:29;21.23;;;10.27;;
38111;SDS011;64011;56.312;44.048;2023-04-01T05:10:30;19.35;;;9.25;;
38111;SDS011;64011;56.312;44.048;2023-04-01T05:12:30;20.05;;;9.00;;
38111;SDS011;64011;56.312;44.048;2023-04-01T05:14:31;18.83;;;8.55;;
38111;SDS011;64011;56.312;44.048;2023-04-01T05:16:32;20.23;;;9.82;;
38111;SDS011;64011;56.312;44.048;2023-04-01T05:18:32;22.00;;;10.07;;
38111;SDS011;64011;56.312;44.048;2023-04-01T05:20:33;20.75;;;10.07;;
38111;SDS011;64011;56.312;44.048;2023-04-01T05:22:36;20.15;;;9.68;;
38111;SDS011;64011;56.312;44.048;2023-04-01T05:24:36;19.27;;;9.38;;
38111;SDS011;64011;56.312;44.048;2023-04-01T05:26:37;25.10;;;11.98;;
38111;SDS011;64011;56.312;44.048;2023-04-01T05:28:38;24.13;;;11.68;;
38111;SDS011;64011;56.312;44.048;2023-04-01T05:30:39;22.13;;;9.88;;
38111;SDS011;64011;56.312;44.048;2023-04-01T05:32:40;24.95;;;12.40;;
38111;SDS011;64011;56.312;44.048;2023-04-01T05:34:41;19.70;;;8.40;;
38111;SDS011;64011;56.312;44.048;2023-04-01T05:36:42;20.30;;;9.25;;
38111;SDS011;64011;56.312;44.048;2023-04-01T05:38:44;20.70;;;9.23;;
38111;SDS011;64011;56.312;44.048;2023-04-01T05:40:45;15.75;;;7.25;;
38111;SDS011;64011;56.312;44.048;2023-04-01T05:42:45;23.77;;;11.00;;
38111;SDS011;64011;56.312;44.048;2023-04-01T05:44:46;32.85;;;16.85;;
38111;SDS011;64011;56.312;44.048;2023-04-01T05:46:47;20.52;;;7.90;;
38111;SDS011;64011;56.312;44.048;2023-04-01T05:48:49;21.17;;;9.48;;
38111;SDS011;64011;56.312;44.048;2023-04-01T05:50:50;20.80;;;10.13;;
38111;SDS011;64011;56.312;44.048;2023-04-01T05:52:50;16.90;;;5.68;;
38111;SDS011;64011;56.312;44.048;2023-04-01T05:54:53;18.42;;;8.80;;
38111;SDS011;64011;56.312;44.048;2023-04-01T05:56:54;18.63;;;8.23;;
38111;SDS011;64011;56.312;44.048;2023-04-01T05:58:56;16.65;;;6.80;;
38111;SDS011;64011;56.312;44.048;2023-04-01T06:01:00;16.45;;;6.32;;
38111;SDS011;64011;56.312;44.048;2023-04-01T06:03:01;15.40;;;5.95;;
38111;SDS011;64011;56.312;44.048;2023-04-01T06:05:03;17.42;;;6.72;;
38111;SDS011;64011;56.312;44.048;2023-04-01T06:07:12;16.50;;;6.70;;
38111;SDS011;64011;56.312;44.048;2023-04-01T06:09:16;16.73;;;7.35;;
38111;SDS011;64011;56.312;44.048;2023-04-01T06:11:22;16.13;;;7.40;;
38111;SDS011;64011;56.312;44.048;2023-04-01T06:13:33;16.92;;;6.80;;
38111;SDS011;64011;56.312;44.048;2023-04-01T06:15:53;16.83;;;7.25;;
38111;SDS011;64011;56.312;44.048;2023-04-01T06:18:02;16.95;;;7.22;;
38111;SDS011;64011;56.312;44.048;2023-04-01T06:20:24;15.80;;;6.68;;
38111;SDS011;64011;56.312;44.048;2023-04-01T06:22:44;15.18;;;5.97;;
38111;SDS011;64011;56.312;44.048;2023-04-01T06:24:57;18.60;;;6.82;;
38111;SDS011;64011;56.312;44.048;2023-04-01T06:27:19;16.27;;;6.93;;
38111;SDS011;64011;56.312;44.048;2023-04-01T06:29:33;17.42;;;7.20;;
38111;SDS011;64011;56.312;44.048;2023-04-01T06:34:26;15.60;;;6.13;;
38111;SDS011;64011;56.312;44.048;2023-04-01T06:36:46;16.98;;;6.65;;
38111;SDS011;64011;56.312;44.048;2023-04-01T06:38:57;16.42;;;6.57;;
38111;SDS011;64011;56.312;44.048;2023-04-01T06:41:11;15.68;;;6.55;;
38111;SDS011;64011;56.312;44.048;2023-04-01T06:43:30;12.60;;;5.00;;
38111;SDS011;64011;56.312;44.048;2023-04-01T06:45:39;13.45;;;5.07;;
38111;SDS011;64011;56.312;44.048;2023-04-01T06:47:49;14.63;;;5.47;;
38111;SDS011;64011;56.312;44.048;2023-04-01T06:49:57;12.40;;;4.65;;
38111;SDS011;64011;56.312;44.048;2023-04-01T06:52:05;14.40;;;5.85;;
38111;SDS011;64011;56.312;44.048;2023-04-01T06:54:12;14.65;;;5.38;;
38111;SDS011;64011;56.312;44.048;2023-04-01T06:56:16;15.18;;;6.10;;
38111;SDS011;64011;56.312;44.048;2023-04-01T06:58:19;15.27;;;5.90;;
38111;SDS011;64011;56.312;44.048;2023-04-01T07:00:27;14.65;;;6.30;;
38111;SDS011;64011;56.312;44.048;2023-04-01T07:02:31;13.97;;;5.53;;
38111;SDS011;64011;56.312;44.048;2023-04-01T07:04:34;15.05;;;6.07;;
38111;SDS011;64011;56.312;44.048;2023-04-01T07:06:38;15.27;;;5.78;;
38111;SDS011;64011;56.312;44.048;2023-04-01T07:08:41;20.25;;;8.77;;
38111;SDS011;64011;56.312;44.048;2023-04-01T07:10:44;17.88;;;7.15;;
38111;SDS011;64011;56.312;44.048;2023-04-01T07:12:48;17.42;;;6.70;;
38111;SDS011;64011;56.312;44.048;2023-04-01T07:14:50;14.43;;;5.45;;
38111;SDS011;64011;56.312;44.048;2023-04-01T07:16:56;24.58;;;10.35;;
38111;SDS011;64011;56.312;44.048;2023-04-01T07:19:01;18.98;;;7.53;;
38111;SDS011;64011;56.312;44.048;2023-04-01T07:21:03;18.52;;;7.65;;
38111;SDS011;64011;56.312;44.048;2023-04-01T07:23:06;13.65;;;5.45;;
38111;SDS011;64011;56.312;44.048;2023-04-01T07:25:11;8.57;;;3.50;;
38111;SDS011;64011;56.312;44.048;2023-04-01T07:27:14;14.07;;;5.30;;
38111;SDS011;64011;56.312;44.048;2023-04-01T07:29:16;14.15;;;5.60;;
38111;SDS011;64011;56.312;44.048;2023-04-01T07:31:20;11.30;;;4.07;;
38111;SDS011;64011;56.312;44.048;2023-04-01T07:33:28;12.27;;;5.15;;
38111;SDS011;64011;56.312;44.048;2023-04-01T07:35:35;11.52;;;4.38;;
38111;SDS011;64011;56.312;44.048;2023-04-01T07:37:39;11.63;;;4.47;;
38111;SDS011;64011;56.312;44.048;2023-04-01T07:39:47;10.82;;;3.80;;
38111;SDS011;64011;56.312;44.048;2023-04-01T07:41:55;8.05;;;3.40;;
38111;SDS011;64011;56.312;44.048;2023-04-01T07:44:04;16.60;;;5.53;;
38111;SDS011;64011;56.312;44.048;2023-04-01T07:46:11;16.98;;;6.38;;
38111;SDS011;64011;56.312;44.048;2023-04-01T07:48:19;11.05;;;3.92;;
38111;SDS011;64011;56.312;44.048;2023-04-01T07:50:26;11.23;;;3.50;;
38111;SDS011;64011;56.312;44.048;2023-04-01T07:52:30;14.43;;;5.13;;
38111;SDS011;64011;56.312;44.048;2023-04-01T07:54:37;8.63;;;3.15;;
38111;SDS011;64011;56.312;44.048;2023-04-01T07:56:43;13.02;;;4.75;;
38111;SDS011;64011;56.312;44.048;2023-04-01T07:58:51;4.85;;;1.92;;
38111;SDS011;64011;56.312;44.048;2023-04-01T08:00:56;8.55;;;3.03;;
38111;SDS011;64011;56.312;44.048;2023-04-01T08:03:07;8.73;;;3.13;;
38111;SDS011;64011;56.312;44.048;2023-04-01T08:07:22;5.15;;;2.10;;
38111;SDS011;64011;56.312;44.048;2023-04-01T08:09:26;4.65;;;1.55;;
38111;SDS011;64011;56.312;44.048;2023-04-01T08:11:32;8.88;;;2.33;;
38111;SDS011;64011;56.312;44.048;2023-04-01T08:13:41;6.25;;;2.47;;
38111;SDS011;64011;56.312;44.048;2023-04-01T08:15:47;5.15;;;1.73;;
38111;SDS011;64011;56.312;44.048;2023-04-01T08:17:54;6.90;;;2.47;;
38111;SDS011;64011;56.312;44.048;2023-04-01T08:20:07;12.50;;;3.50;;
38111;SDS011;64011;56.312;44.048;2023-04-01T08:22:15;10.77;;;3.83;;
38111;SDS011;64011;56.312;44.048;2023-04-01T08:24:22;11.40;;;4.20;;
38111;SDS011;64011;56.312;44.048;2023-04-01T08:26:27;7.55;;;2.67;;
38111;SDS011;64011;56.312;44.048;2023-04-01T08:28:32;10.05;;;3.67;;
38111;SDS011;64011;56.312;44.048;2023-04-01T08:30:36;8.05;;;3.10;;
38111;SDS011;64011;56.312;44.048;2023-04-01T08:32:41;6.70;;;2.85;;
38111;SDS011;64011;56.312;44.048;2023-04-01T08:34:43;10.20;;;3.10;;
38111;SDS011;64011;56.312;44.048;2023-04-01T08:36:46;5.18;;;2.00;;
38111;SDS011;64011;56.312;44.048;2023-04-01T08:38:51;2.53;;;1.30;;
38111;SDS011;64011;56.312;44.048;2023-04-01T08:40:59;5.95;;;2.20;;
38111;SDS011;64011;56.312;44.048;2023-04-01T08:43:04;6.15;;;2.30;;
38111;SDS011;64011;56.312;44.048;2023-04-01T08:45:18;4.20;;;2.00;;
38111;SDS011;64011;56.312;44.048;2023-04-01T08:47:31;7.90;;;2.67;;
38111;SDS011;64011;56.312;44.048;2023-04-01T08:52:32;7.00;;;2.88;;
38111;SDS011;64011;56.312;44.048;2023-04-01T08:57:11;4.72;;;1.75;;
38111;SDS011;64011;56.312;44.048;2023-04-01T08:59:19;7.20;;;2.70;;
38111;SDS011;64011;56.312;44.048;2023-04-01T09:01:35;6.22;;;2.00;;
38111;SDS011;64011;56.312;44.048;2023-04-01T09:06:11;5.70;;;2.05;;
38111;SDS011;64011;56.312;44.048;2023-04-01T09:08:38;5.80;;;2.17;;
38111;SDS011;64011;56.312;44.048;2023-04-01T09:11:08;6.97;;;2.38;;
38111;SDS011;64011;56.312;44.048;2023-04-01T09:15:42;7.47;;;2.35;;
38111;SDS011;64011;56.312;44.048;2023-04-01T09:17:59;6.80;;;2.17;;
38111;SDS011;64011;56.312;44.048;2023-04-01T09:20:39;3.88;;;1.88;;
38111;SDS011;64011;56.312;44.048;2023-04-01T09:22:49;6.80;;;2.50;;
38111;SDS011;64011;56.312;44.048;2023-04-01T09:27:26;5.55;;;2.40;;
38111;SDS011;64011;56.312;44.048;2023-04-01T09:29:33;4.50;;;2.05;;
38111;SDS011;64011;56.312;44.048;2023-04-01T09:31:50;6.82;;;2.63;;
38111;SDS011;64011;56.312;44.048;2023-04-01T09:34:12;7.32;;;2.65;;
38111;SDS011;64011;56.312;44.048;2023-04-01T09:36:25;6.43;;;2.20;;
38111;SDS011;64011;56.312;44.048;2023-04-01T09:38:36;7.18;;;2.65;;
38111;SDS011;64011;56.312;44.048;2023-04-01T09:40:44;6.05;;;2.60;;
38111;SDS011;64011;56.312;44.048;2023-04-01T09:42:59;8.80;;;2.60;;
38111;SDS011;64011;56.312;44.048;2023-04-01T09:45:23;11.07;;;4.05;;
38111;SDS011;64011;56.312;44.048;2023-04-01T09:47:41;7.78;;;3.30;;
38111;SDS011;64011;56.312;44.048;2023-04-01T09:49:51;7.13;;;2.55;;
38111;SDS011;64011;56.312;44.048;2023-04-01T09:52:01;7.35;;;2.95;;
38111;SDS011;64011;56.312;44.048;2023-04-01T09:54:13;7.00;;;2.90;;
38111;SDS011;64011;56.312;44.048;2023-04-01T09:56:33;9.65;;;3.50;;
38111;SDS011;64011;56.312;44.048;2023-04-01T10:01:40;9.57;;;3.22;;
38111;SDS011;64011;56.312;44.048;2023-04-01T10:06:30;7.18;;;2.85;;
38111;SDS011;64011;56.312;44.048;2023-04-01T10:09:03;10.63;;;3.60;;
38111;SDS011;64011;56.312;44.048;2023-04-01T10:16:23;5.68;;;2.33;;
38111;SDS011;64011;56.312;44.048;2023-04-01T10:18:46;5.55;;;2.10;;
38111;SDS011;64011;56.312;44.048;2023-04-01T10:23:57;4.75;;;2.10;;
38111;SDS011;64011;56.312;44.048;2023-04-01T10:31:07;5.93;;;2.30;;
38111;SDS011;64011;56.312;44.048;2023-04-01T10:38:40;5.15;;;2.28;;
38111;SDS011;64011;56.312;44.048;2023-04-01T10:41:16;7.13;;;2.13;;
38111;SDS011;64011;56.312;44.048;2023-04-01T10:43:46;6.18;;;2.40;;
38111;SDS011;64011;56.312;44.048;2023-04-01T10:48:41;8.20;;;2.75;;
38111;SDS011;64011;56.312;44.048;2023-04-01T10:56:25;8.10;;;2.80;;
38111;SDS011;64011;56.312;44.048;2023-04-01T10:58:38;8.85;;;3.45;;
38111;SDS011;64011;56.312;44.048;2023-04-01T11:01:07;12.43;;;4.10;;
38111;SDS011;64011;56.312;44.048;2023-04-01T11:03:35;10.68;;;3.60;;
38111;SDS011;64011;56.312;44.048;2023-04-01T11:11:10;8.85;;;3.15;;
38111;SDS011;64011;56.312;44.048;2023-04-01T11:13:39;9.35;;;3.30;;
38111;SDS011;64011;56.312;44.048;2023-04-01T11:21:47;14.10;;;5.10;;
38111;SDS011;64011;56.312;44.048;2023-04-01T11:24:04;12.95;;;4.82;;
38111;SDS011;64011;56.312;44.048;2023-04-01T11:26:12;19.42;;;7.97;;
38111;SDS011;64011;56.312;44.048;2023-04-01T11:30:58;9.10;;;2.90;;
38111;SDS011;64011;56.312;44.048;2023-04-01T11:33:04;8.07;;;2.83;;
38111;SDS011;64011;56.312;44.048;2023-04-01T11:37:41;13.30;;;4.40;;
38111;SDS011;64011;56.312;44.048;2023-04-01T11:39:54;17.17;;;6.15;;
38111;SDS011;64011;56.312;44.048;2023-04-01T11:42:02;15.85;;;5.03;;
38111;SDS011;64011;56.312;44.048;2023-04-01T11:44:14;16.65;;;5.75;;
38111;SDS011;64011;56.312;44.048;2023-04-01T11:46:18;10.50;;;3.65;;
38111;SDS011;64011;56.312;44.048;2023-04-01T11:51:02;17.02;;;6.50;;
38111;SDS011;64011;56.312;44.048;2023-04-01T11:53:18;15.48;;;4.68;;
38111;SDS011;64011;56.312;44.048;2023-04-01T11:55:24;12.43;;;4.57;;
38111;SDS011;64011;56.312;44.048;2023-04-01T11:57:35;14.95;;;4.85;;
38111;SDS011;64011;56.312;44.048;2023-04-01T11:59:50;13.68;;;5.03;;
38111;SDS011;64011;56.312;44.048;2023-04-01T12:02:03;12.27;;;4.15;;
38111;SDS011;64011;56.312;44.048;2023-04-01T12:04:18;12.25;;;4.45;;
38111;SDS011;64011;56.312;44.048;2023-04-01T12:06:30;10.93;;;3.60;;
38111;SDS011;64011;56.312;44.048;2023-04-01T12:08:38;11.35;;;4.45;;
38111;SDS011;64011;56.312;44.048;2023-04-01T12:10:45;9.60;;;3.38;;
38111;SDS011;64011;56.312;44.048;2023-04-01T12:12:52;9.90;;;3.30;;
38111;SDS011;64011;56.312;44.048;2023-04-01T12:15:00;9.82;;;3.78;;
38111;SDS011;64011;56.312;44.048;2023-04-01T12:17:09;9.57;;;3.50;;
38111;SDS011;64011;56.312;44.048;2023-04-01T12:19:20;10.05;;;3.10;;
38111;SDS011;64011;56.312;44.048;2023-04-01T12:21:27;8.73;;;3.00;;
38111;SDS011;64011;56.312;44.048;2023-04-01T12:23:39;7.53;;;2.72;;
38111;SDS011;64011;56.312;44.048;2023-04-01T12:25:58;7.03;;;2.25;;
38111;SDS011;64011;56.312;44.048;2023-04-01T12:28:06;6.85;;;2.30;;
38111;SDS011;64011;56.312;44.048;2023-04-01T12:32:43;9.18;;;3.20;;
38111;SDS011;64011;56.312;44.048;2023-04-01T12:34:53;6.22;;;2.45;;
38111;SDS011;64011;56.312;44.048;2023-04-01T12:37:06;4.63;;;1.67;;
38111;SDS011;64011;56.312;44.048;2023-04-01T12:41:51;6.78;;;2.40;;
38111;SDS011;64011;56.312;44.048;2023-04-01T12:44:05;5.95;;;2.13;;
38111;SDS011;64011;56.312;44.048;2023-04-01T12:46:14;8.80;;;3.03;;
38111;SDS011;64011;56.312;44.048;2023-04-01T12:53:19;9.75;;;3.17;;
38111;SDS011;64011;56.312;44.048;2023-04-01T12:55:35;11.35;;;3.58;;
38111;SDS011;64011;56.312;44.048;2023-04-01T13:00:15;8.98;;;2.90;;
38111;SDS011;64011;56.312;44.048;2023-04-01T13:02:45;14.50;;;5.43;;
38111;SDS011;64011;56.312;44.048;2023-04-01T13:05:01;10.27;;;3.40;;
38111;SDS011;64011;56.312;44.048;2023-04-01T13:09:23;15.15;;;5.25;;
38111;SDS011;64011;56.312;44.048;2023-04-01T13:11:32;12.02;;;4.20;;
38111;SDS011;64011;56.312;44.048;2023-04-01T13:13:52;13.15;;;4.22;;
38111;SDS011;64011;56.312;44.048;2023-04-01T13:16:13;8.38;;;3.05;;
38111;SDS011;64011;56.312;44.048;2023-04-01T13:18:17;11.10;;;3.92;;
38111;SDS011;64011;56.312;44.048;2023-04-01T13:20:26;9.07;;;3.00;;
38111;SDS011;64011;56.312;44.048;2023-04-01T13:22:35;11.93;;;3.80;;
38111;SDS011;64011;56.312;44.048;2023-04-01T13:24:46;13.63;;;4.90;;
38111;SDS011;64011;56.312;44.048;2023-04-01T13:26:52;12.88;;;3.72;;
38111;SDS011;64011;56.312;44.048;2023-04-01T13:28:59;14.38;;;4.47;;
38111;SDS011;64011;56.312;44.048;2023-04-01T13:31:04;13.23;;;3.72;;
38111;SDS011;64011;56.312;44.048;2023-04-01T13:33:13;14.27;;;5.03;;
38111;SDS011;64011;56.312;44.048;2023-04-01T13:35:20;15.23;;;4.90;;
38111;SDS011;64011;56.312;44.048;2023-04-01T13:37:30;23.90;;;8.73;;
38111;SDS011;64011;56.312;44.048;2023-04-01T13:39:56;20.63;;;6.75;;
38111;SDS011;64011;56.312;44.048;2023-04-01T13:42:10;20.70;;;7.13;;
38111;SDS011;64011;56.312;44.048;2023-04-01T13:44:16;19.77;;;7.75;;
38111;SDS011;64011;56.312;44.048;2023-04-01T13:46:29;17.65;;;5.70;;